sensor_id;sensor_type;location;lat;lon;timestamp;P1;durP1;ratioP1;P2;durP2;ratioP2
65641;SDS011;52340;-6.720;108.544;2023-08-17T00:00:53;22.20;;;9.90;;
65641;SDS011;52340;-6.720;108.544;2023-08-17T00:01:54;21.63;;;9.32;;
65641;SDS011;52340;-6.720;108.544;2023-08-17T00:02:56;21.92;;;9.48;;
65641;SDS011;52340;-6.720;108.544;2023-08-17T00:03:58;20.45;;;9.07;;
65641;SDS011;52340;-6.720;108.544;2023-08-17T00:04:59;19.52;;;7.78;;
65641;SDS011;52340;-6.720;108.544;2023-08-17T00:06:01;18.60;;;6.72;;
65641;SDS011;52340;-6.720;108.544;2023-08-17T00:07:04;17.88;;;6.55;;
65641;SDS011;52340;-6.720;108.544;2023-08-17T00:08:05;15.35;;;5.80;;
65641;SDS011;52340;-6.720;108.544;2023-08-17T00:09:07;17.98;;;5.72;;
65641;SDS011;52340;-6.720;108.544;2023-08-17T00:10:09;13.50;;;5.53;;
65641;SDS011;52340;-6.720;108.544;2023-08-17T00:11:11;12.23;;;5.22;;
65641;SDS011;52340;-6.720;108.544;2023-08-17T00:12:13;12.13;;;5.38;;
65641;SDS011;52340;-6.720;108.544;2023-08-17T00:13:14;12.68;;;4.85;;
65641;SDS011;52340;-6.720;108.544;2023-08-17T00:14:16;13.52;;;4.97;;
65641;SDS011;52340;-6.720;108.544;2023-08-17T00:15:18;12.82;;;4.70;;
65641;SDS011;52340;-6.720;108.544;2023-08-17T00:16:21;12.85;;;4.75;;
65641;SDS011;52340;-6.720;108.544;2023-08-17T00:17:23;11.27;;;4.57;;
65641;SDS011;52340;-6.720;108.544;2023-08-17T00:18:25;10.35;;;4.70;;
65641;SDS011;52340;-6.720;108.544;2023-08-17T00:19:26;14.38;;;5.00;;
65641;SDS011;52340;-6.720;108.544;2023-08-17T00:20:28;10.45;;;4.70;;
65641;SDS011;52340;-6.720;108.544;2023-08-17T00:21:30;13.18;;;4.88;;
65641;SDS011;52340;-6.720;108.544;2023-08-17T00:22:32;17.17;;;5.10;;
65641;SDS011;52340;-6.720;108.544;2023-08-17T00:23:33;13.85;;;5.28;;
65641;SDS011;52340;-6.720;108.544;2023-08-17T00:24:35;12.52;;;4.82;;
65641;SDS011;52340;-6.720;108.544;2023-08-17T00:25:37;11.63;;;4.60;;
65641;SDS011;52340;-6.720;108.544;2023-08-17T00:26:39;12.25;;;4.30;;
65641;SDS011;52340;-6.720;108.544;2023-08-17T00:27:40;12.63;;;5.10;;
65641;SDS011;52340;-6.720;108.544;2023-08-17T00:28:42;10.48;;;4.78;;
65641;SDS011;52340;-6.720;108.544;2023-08-17T00:29:44;12.80;;;4.82;;
65641;SDS011;52340;-6.720;108.544;2023-08-17T00:30:46;11.38;;;4.85;;
65641;SDS011;52340;-6.720;108.544;2023-08-17T00:31:49;10.95;;;4.53;;
65641;SDS011;52340;-6.720;108.544;2023-08-17T00:32:51;12.45;;;4.97;;
65641;SDS011;52340;-6.720;108.544;2023-08-17T00:33:52;10.85;;;4.40;;
65641;SDS011;52340;-6.720;108.544;2023-08-17T00:34:54;12.15;;;4.40;;
65641;SDS011;52340;-6.720;108.544;2023-08-17T00:35:56;11.95;;;4.63;;
65641;SDS011;52340;-6.720;108.544;2023-08-17T00:36:57;14.00;;;4.72;;
65641;SDS011;52340;-6.720;108.544;2023-08-17T00:37:59;11.43;;;4.28;;
65641;SDS011;52340;-6.720;108.544;2023-08-17T00:39:01;9.48;;;4.07;;
65641;SDS011;52340;-6.720;108.544;2023-08-17T00:40:03;9.65;;;4.20;;
65641;SDS011;52340;-6.720;108.544;2023-08-17T00:41:06;12.18;;;4.40;;
65641;SDS011;52340;-6.720;108.544;2023-08-17T00:42:07;12.48;;;4.63;;
65641;SDS011;52340;-6.720;108.544;2023-08-17T00:43:09;11.63;;;4.70;;
65641;SDS011;52340;-6.720;108.544;2023-08-17T00:44:11;12.60;;;5.03;;
65641;SDS011;52340;-6.720;108.544;2023-08-17T00:45:13;9.90;;;4.10;;
65641;SDS011;52340;-6.720;108.544;2023-08-17T00:46:14;13.05;;;4.53;;
65641;SDS011;52340;-6.720;108.544;2023-08-17T00:47:18;14.10;;;4.65;;
65641;SDS011;52340;-6.720;108.544;2023-08-17T00:48:20;11.32;;;3.75;;
65641;SDS011;52340;-6.720;108.544;2023-08-17T00:49:22;11.02;;;4.18;;
65641;SDS011;52340;-6.720;108.544;2023-08-17T00:50:24;12.35;;;4.40;;
65641;SDS011;52340;-6.720;108.544;2023-08-17T00:51:26;9.77;;;4.15;;
65641;SDS011;52340;-6.720;108.544;2023-08-17T00:52:28;11.48;;;4.60;;
65641;SDS011;52340;-6.720;108.544;2023-08-17T00:53:33;10.70;;;4.50;;
65641;SDS011;52340;-6.720;108.544;2023-08-17T00:54:37;12.70;;;4.57;;
65641;SDS011;52340;-6.720;108.544;2023-08-17T00:55:39;12.30;;;4.55;;
65641;SDS011;52340;-6.720;108.544;2023-08-17T00:56:41;10.25;;;4.25;;
65641;SDS011;52340;-6.720;108.544;2023-08-17T00:57:43;9.90;;;4.32;;
65641;SDS011;52340;-6.720;108.544;2023-08-17T00:58:44;10.57;;;4.25;;
65641;SDS011;52340;-6.720;108.544;2023-08-17T00:59:46;11.00;;;4.50;;
65641;SDS011;52340;-6.720;108.544;2023-08-17T01:00:48;12.50;;;4.53;;
65641;SDS011;52340;-6.720;108.544;2023-08-17T01:01:50;9.30;;;3.97;;
65641;SDS011;52340;-6.720;108.544;2023-08-17T01:02:53;9.80;;;3.70;;
65641;SDS011;52340;-6.720;108.544;2023-08-17T01:03:55;10.75;;;3.90;;
65641;SDS011;52340;-6.720;108.544;2023-08-17T01:04:57;10.25;;;3.90;;
65641;SDS011;52340;-6.720;108.544;2023-08-17T01:05:59;11.07;;;3.83;;
65641;SDS011;52340;-6.720;108.544;2023-08-17T01:07:01;8.82;;;3.75;;
65641;SDS011;52340;-6.720;108.544;2023-08-17T01:08:03;8.25;;;3.58;;
65641;SDS011;52340;-6.720;108.544;2023-08-17T01:09:05;11.73;;;3.90;;
65641;SDS011;52340;-6.720;108.544;2023-08-17T01:10:07;8.80;;;3.97;;
65641;SDS011;52340;-6.720;108.544;2023-08-17T01:11:11;9.93;;;4.18;;
65641;SDS011;52340;-6.720;108.544;2023-08-17T01:12:23;9.75;;;4.00;;
65641;SDS011;52340;-6.720;108.544;2023-08-17T01:13:31;9.60;;;4.00;;
65641;SDS011;52340;-6.720;108.544;2023-08-17T01:14:37;8.75;;;4.03;;
65641;SDS011;52340;-6.720;108.544;2023-08-17T01:15:45;9.88;;;3.90;;
65641;SDS011;52340;-6.720;108.544;2023-08-17T01:16:50;10.55;;;3.88;;
65641;SDS011;52340;-6.720;108.544;2023-08-17T01:17:56;12.30;;;3.88;;
65641;SDS011;52340;-6.720;108.544;2023-08-17T01:19:01;9.18;;;3.45;;
65641;SDS011;52340;-6.720;108.544;2023-08-17T01:20:08;8.23;;;3.60;;
65641;SDS011;52340;-6.720;108.544;2023-08-17T01:21:10;13.10;;;3.60;;
65641;SDS011;52340;-6.720;108.544;2023-08-17T01:22:11;9.52;;;3.42;;
65641;SDS011;52340;-6.720;108.544;2023-08-17T01:23:18;8.90;;;3.85;;
65641;SDS011;52340;-6.720;108.544;2023-08-17T01:24:19;8.75;;;3.47;;
65641;SDS011;52340;-6.720;108.544;2023-08-17T01:25:22;7.53;;;3.42;;
65641;SDS011;52340;-6.720;108.544;2023-08-17T01:26:24;9.68;;;3.60;;
65641;SDS011;52340;-6.720;108.544;2023-08-17T01:27:25;8.00;;;3.40;;
65641;SDS011;52340;-6.720;108.544;2023-08-17T01:28:34;16.65;;;3.92;;
65641;SDS011;52340;-6.720;108.544;2023-08-17T01:29:36;8.75;;;3.50;;
65641;SDS011;52340;-6.720;108.544;2023-08-17T01:30:39;7.93;;;3.10;;
65641;SDS011;52340;-6.720;108.544;2023-08-17T01:31:47;7.28;;;3.00;;
65641;SDS011;52340;-6.720;108.544;2023-08-17T01:32:55;9.07;;;3.33;;
65641;SDS011;52340;-6.720;108.544;2023-08-17T01:34:03;10.93;;;3.38;;
65641;SDS011;52340;-6.720;108.544;2023-08-17T01:35:08;8.55;;;3.08;;
65641;SDS011;52340;-6.720;108.544;2023-08-17T01:36:16;9.35;;;3.53;;
65641;SDS011;52340;-6.720;108.544;2023-08-17T01:37:21;10.00;;;3.88;;
65641;SDS011;52340;-6.720;108.544;2023-08-17T01:38:25;9.55;;;3.92;;
65641;SDS011;52340;-6.720;108.544;2023-08-17T01:39:27;9.57;;;3.72;;
65641;SDS011;52340;-6.720;108.544;2023-08-17T01:40:31;10.57;;;3.50;;
65641;SDS011;52340;-6.720;108.544;2023-08-17T01:41:34;9.20;;;4.00;;
65641;SDS011;52340;-6.720;108.544;2023-08-17T01:42:36;10.13;;;3.75;;
65641;SDS011;52340;-6.720;108.544;2023-08-17T01:43:38;10.23;;;3.65;;
65641;SDS011;52340;-6.720;108.544;2023-08-17T01:44:40;10.13;;;3.80;;
65641;SDS011;52340;-6.720;108.544;2023-08-17T01:45:42;12.48;;;4.10;;
65641;SDS011;52340;-6.720;108.544;2023-08-17T01:46:44;10.77;;;4.15;;
65641;SDS011;52340;-6.720;108.544;2023-08-17T01:47:46;9.57;;;3.78;;
65641;SDS011;52340;-6.720;108.544;2023-08-17T01:48:50;9.07;;;4.30;;
65641;SDS011;52340;-6.720;108.544;2023-08-17T01:49:52;11.52;;;4.03;;
65641;SDS011;52340;-6.720;108.544;2023-08-17T01:50:54;8.60;;;3.88;;
65641;SDS011;52340;-6.720;108.544;2023-08-17T01:51:56;8.85;;;3.80;;
65641;SDS011;52340;-6.720;108.544;2023-08-17T01:52:57;7.82;;;3.42;;
65641;SDS011;52340;-6.720;108.544;2023-08-17T01:54:01;8.15;;;3.58;;
65641;SDS011;52340;-6.720;108.544;2023-08-17T01:55:03;9.05;;;3.60;;
65641;SDS011;52340;-6.720;108.544;2023-08-17T01:56:05;10.48;;;3.90;;
65641;SDS011;52340;-6.720;108.544;2023-08-17T01:57:07;9.93;;;3.85;;
65641;SDS011;52340;-6.720;108.544;2023-08-17T01:58:09;8.32;;;3.58;;
65641;SDS011;52340;-6.720;108.544;2023-08-17T01:59:10;8.48;;;3.85;;
65641;SDS011;52340;-6.720;108.544;2023-08-17T02:00:12;9.18;;;3.80;;
65641;SDS011;52340;-6.720;108.544;2023-08-17T02:01:15;8.88;;;3.60;;
65641;SDS011;52340;-6.720;108.544;2023-08-17T02:02:17;8.95;;;3.80;;
65641;SDS011;52340;-6.720;108.544;2023-08-17T02:03:18;9.93;;;4.10;;
65641;SDS011;52340;-6.720;108.544;2023-08-17T02:04:20;11.25;;;4.10;;
65641;SDS011;52340;-6.720;108.544;2023-08-17T02:05:22;9.88;;;4.78;;
65641;SDS011;52340;-6.720;108.544;2023-08-17T02:06:23;10.00;;;4.72;;
65641;SDS011;52340;-6.720;108.544;2023-08-17T02:07:25;12.50;;;5.00;;
65641;SDS011;52340;-6.720;108.544;2023-08-17T02:08:27;12.68;;;5.05;;
65641;SDS011;52340;-6.720;108.544;2023-08-17T02:09:30;11.77;;;5.18;;
65641;SDS011;52340;-6.720;108.544;2023-08-17T02:10:32;14.48;;;5.25;;
65641;SDS011;52340;-6.720;108.544;2023-08-17T02:11:34;14.10;;;5.22;;
65641;SDS011;52340;-6.720;108.544;2023-08-17T02:12:35;13.73;;;5.18;;
65641;SDS011;52340;-6.720;108.544;2023-08-17T02:13:37;12.77;;;5.20;;
65641;SDS011;52340;-6.720;108.544;2023-08-17T02:14:39;12.48;;;5.43;;
65641;SDS011;52340;-6.720;108.544;2023-08-17T02:15:40;13.48;;;5.70;;
65641;SDS011;52340;-6.720;108.544;2023-08-17T02:16:42;14.55;;;5.43;;
65641;SDS011;52340;-6.720;108.544;2023-08-17T02:17:44;10.32;;;5.00;;
65641;SDS011;52340;-6.720;108.544;2023-08-17T02:18:46;12.10;;;5.43;;
65641;SDS011;52340;-6.720;108.544;2023-08-17T02:19:56;16.40;;;5.70;;
65641;SDS011;52340;-6.720;108.544;2023-08-17T02:20:58;11.93;;;5.70;;
65641;SDS011;52340;-6.720;108.544;2023-08-17T02:22:00;12.30;;;5.97;;
65641;SDS011;52340;-6.720;108.544;2023-08-17T02:23:02;12.90;;;6.03;;
65641;SDS011;52340;-6.720;108.544;2023-08-17T02:24:04;14.93;;;6.32;;
65641;SDS011;52340;-6.720;108.544;2023-08-17T02:25:10;12.68;;;5.85;;
65641;SDS011;52340;-6.720;108.544;2023-08-17T02:26:12;12.38;;;5.70;;
65641;SDS011;52340;-6.720;108.544;2023-08-17T02:27:13;11.32;;;5.35;;
65641;SDS011;52340;-6.720;108.544;2023-08-17T02:28:15;13.10;;;6.05;;
65641;SDS011;52340;-6.720;108.544;2023-08-17T02:29:17;11.15;;;5.40;;
65641;SDS011;52340;-6.720;108.544;2023-08-17T02:30:18;12.13;;;5.20;;
65641;SDS011;52340;-6.720;108.544;2023-08-17T02:31:20;11.00;;;5.40;;
65641;SDS011;52340;-6.720;108.544;2023-08-17T02:32:22;13.93;;;5.80;;
65641;SDS011;52340;-6.720;108.544;2023-08-17T02:33:24;10.35;;;5.38;;
65641;SDS011;52340;-6.720;108.544;2023-08-17T02:34:25;12.57;;;5.65;;
65641;SDS011;52340;-6.720;108.544;2023-08-17T02:35:27;13.60;;;5.70;;
65641;SDS011;52340;-6.720;108.544;2023-08-17T02:36:29;11.82;;;5.30;;
65641;SDS011;52340;-6.720;108.544;2023-08-17T02:37:31;13.55;;;5.95;;
65641;SDS011;52340;-6.720;108.544;2023-08-17T02:38:32;12.18;;;4.63;;
65641;SDS011;52340;-6.720;108.544;2023-08-17T02:39:34;19.33;;;5.20;;
65641;SDS011;52340;-6.720;108.544;2023-08-17T02:40:37;14.10;;;5.07;;
65641;SDS011;52340;-6.720;108.544;2023-08-17T02:41:39;9.48;;;4.60;;
65641;SDS011;52340;-6.720;108.544;2023-08-17T02:42:41;13.68;;;5.00;;
65641;SDS011;52340;-6.720;108.544;2023-08-17T02:43:42;11.80;;;4.68;;
65641;SDS011;52340;-6.720;108.544;2023-08-17T02:44:44;9.68;;;4.65;;
65641;SDS011;52340;-6.720;108.544;2023-08-17T02:45:46;12.82;;;4.82;;
65641;SDS011;52340;-6.720;108.544;2023-08-17T02:46:47;9.95;;;4.53;;
65641;SDS011;52340;-6.720;108.544;2023-08-17T02:47:49;12.70;;;4.60;;
65641;SDS011;52340;-6.720;108.544;2023-08-17T02:48:51;13.10;;;4.70;;
65641;SDS011;52340;-6.720;108.544;2023-08-17T02:49:52;14.85;;;5.28;;
65641;SDS011;52340;-6.720;108.544;2023-08-17T02:50:54;12.38;;;4.65;;
65641;SDS011;52340;-6.720;108.544;2023-08-17T02:51:56;9.02;;;4.53;;
65641;SDS011;52340;-6.720;108.544;2023-08-17T02:52:57;11.35;;;4.72;;
65641;SDS011;52340;-6.720;108.544;2023-08-17T02:53:59;11.25;;;3.63;;
65641;SDS011;52340;-6.720;108.544;2023-08-17T02:55:01;7.90;;;3.70;;
65641;SDS011;52340;-6.720;108.544;2023-08-17T02:56:04;14.80;;;4.20;;
65641;SDS011;52340;-6.720;108.544;2023-08-17T02:57:06;11.93;;;4.13;;
65641;SDS011;52340;-6.720;108.544;2023-08-17T02:58:08;13.70;;;3.83;;
65641;SDS011;52340;-6.720;108.544;2023-08-17T02:59:10;9.80;;;3.95;;
65641;SDS011;52340;-6.720;108.544;2023-08-17T03:00:12;8.25;;;3.83;;
65641;SDS011;52340;-6.720;108.544;2023-08-17T03:01:14;12.02;;;3.67;;
65641;SDS011;52340;-6.720;108.544;2023-08-17T03:02:16;9.20;;;3.58;;
65641;SDS011;52340;-6.720;108.544;2023-08-17T03:03:18;9.90;;;3.30;;
65641;SDS011;52340;-6.720;108.544;2023-08-17T03:04:19;13.02;;;4.07;;
65641;SDS011;52340;-6.720;108.544;2023-08-17T03:05:21;10.43;;;3.70;;
65641;SDS011;52340;-6.720;108.544;2023-08-17T03:06:23;10.20;;;3.50;;
65641;SDS011;52340;-6.720;108.544;2023-08-17T03:07:24;13.85;;;3.63;;
65641;SDS011;52340;-6.720;108.544;2023-08-17T03:08:26;12.20;;;3.47;;
65641;SDS011;52340;-6.720;108.544;2023-08-17T03:09:28;13.25;;;4.13;;
65641;SDS011;52340;-6.720;108.544;2023-08-17T03:10:30;9.52;;;3.10;;
65641;SDS011;52340;-6.720;108.544;2023-08-17T03:11:34;10.55;;;3.25;;
65641;SDS011;52340;-6.720;108.544;2023-08-17T03:12:35;9.80;;;3.28;;
65641;SDS011;52340;-6.720;108.544;2023-08-17T03:13:38;13.75;;;3.33;;
65641;SDS011;52340;-6.720;108.544;2023-08-17T03:14:40;9.52;;;3.17;;
65641;SDS011;52340;-6.720;108.544;2023-08-17T03:15:41;7.38;;;3.03;;
65641;SDS011;52340;-6.720;108.544;2023-08-17T03:16:43;8.40;;;3.03;;
65641;SDS011;52340;-6.720;108.544;2023-08-17T03:17:45;8.80;;;2.95;;
65641;SDS011;52340;-6.720;108.544;2023-08-17T03:18:46;13.27;;;3.15;;
65641;SDS011;52340;-6.720;108.544;2023-08-17T03:19:48;12.30;;;3.05;;
65641;SDS011;52340;-6.720;108.544;2023-08-17T03:20:50;9.20;;;3.25;;
65641;SDS011;52340;-6.720;108.544;2023-08-17T03:21:52;10.75;;;3.40;;
65641;SDS011;52340;-6.720;108.544;2023-08-17T03:22:53;10.60;;;3.20;;
65641;SDS011;52340;-6.720;108.544;2023-08-17T03:23:55;12.95;;;3.15;;
65641;SDS011;52340;-6.720;108.544;2023-08-17T03:24:57;9.30;;;3.10;;
65641;SDS011;52340;-6.720;108.544;2023-08-17T03:25:59;10.13;;;2.92;;
65641;SDS011;52340;-6.720;108.544;2023-08-17T03:27:02;9.98;;;2.75;;
65641;SDS011;52340;-6.720;108.544;2023-08-17T03:28:04;10.13;;;3.35;;
65641;SDS011;52340;-6.720;108.544;2023-08-17T03:29:06;11.15;;;3.08;;
65641;SDS011;52340;-6.720;108.544;2023-08-17T03:30:08;12.73;;;3.35;;
65641;SDS011;52340;-6.720;108.544;2023-08-17T03:31:10;6.57;;;2.90;;
65641;SDS011;52340;-6.720;108.544;2023-08-17T03:32:11;9.52;;;3.00;;
65641;SDS011;52340;-6.720;108.544;2023-08-17T03:33:13;7.95;;;2.72;;
65641;SDS011;52340;-6.720;108.544;2023-08-17T03:34:15;9.65;;;3.47;;
65641;SDS011;52340;-6.720;108.544;2023-08-17T03:35:17;10.50;;;3.00;;
65641;SDS011;52340;-6.720;108.544;2023-08-17T03:36:19;7.03;;;3.10;;
65641;SDS011;52340;-6.720;108.544;2023-08-17T03:37:20;15.00;;;2.97;;
65641;SDS011;52340;-6.720;108.544;2023-08-17T03:38:22;12.80;;;3.13;;
65641;SDS011;52340;-6.720;108.544;2023-08-17T03:39:24;11.00;;;3.42;;
65641;SDS011;52340;-6.720;108.544;2023-08-17T03:40:25;9.75;;;3.00;;
65641;SDS011;52340;-6.720;108.544;2023-08-17T03:41:27;10.55;;;3.30;;
65641;SDS011;52340;-6.720;108.544;2023-08-17T03:42:30;8.20;;;3.35;;
65641;SDS011;52340;-6.720;108.544;2023-08-17T03:43:32;11.55;;;3.47;;
65641;SDS011;52340;-6.720;108.544;2023-08-17T03:44:34;8.85;;;3.40;;
65641;SDS011;52340;-6.720;108.544;2023-08-17T03:45:35;11.40;;;3.50;;
65641;SDS011;52340;-6.720;108.544;2023-08-17T03:46:37;10.45;;;3.60;;
65641;SDS011;52340;-6.720;108.544;2023-08-17T03:47:39;12.25;;;3.40;;
65641;SDS011;52340;-6.720;108.544;2023-08-17T03:48:40;10.75;;;3.50;;
65641;SDS011;52340;-6.720;108.544;2023-08-17T03:49:42;11.57;;;3.42;;
65641;SDS011;52340;-6.720;108.544;2023-08-17T03:50:44;10.05;;;3.17;;
65641;SDS011;52340;-6.720;108.544;2023-08-17T03:51:45;8.70;;;3.45;;
65641;SDS011;52340;-6.720;108.544;2023-08-17T03:52:47;8.77;;;3.00;;
65641;SDS011;52340;-6.720;108.544;2023-08-17T03:53:49;10.90;;;3.47;;
65641;SDS011;52340;-6.720;108.544;2023-08-17T03:54:50;10.88;;;3.33;;
65641;SDS011;52340;-6.720;108.544;2023-08-17T03:55:52;7.85;;;3.30;;
65641;SDS011;52340;-6.720;108.544;2023-08-17T03:56:54;9.73;;;3.72;;
65641;SDS011;52340;-6.720;108.544;2023-08-17T03:57:57;9.00;;;3.72;;
65641;SDS011;52340;-6.720;108.544;2023-08-17T03:58:59;7.53;;;3.35;;
65641;SDS011;52340;-6.720;108.544;2023-08-17T04:00:01;12.32;;;3.38;;
65641;SDS011;52340;-6.720;108.544;2023-08-17T04:01:02;10.75;;;3.33;;
65641;SDS011;52340;-6.720;108.544;2023-08-17T04:02:04;10.02;;;3.67;;
65641;SDS011;52340;-6.720;108.544;2023-08-17T04:03:06;13.88;;;3.50;;
65641;SDS011;52340;-6.720;108.544;2023-08-17T04:04:08;10.13;;;3.35;;
65641;SDS011;52340;-6.720;108.544;2023-08-17T04:05:09;8.55;;;3.30;;
65641;SDS011;52340;-6.720;108.544;2023-08-17T04:06:11;7.63;;;3.33;;
65641;SDS011;52340;-6.720;108.544;2023-08-17T04:07:14;9.05;;;3.58;;
65641;SDS011;52340;-6.720;108.544;2023-08-17T04:08:22;10.65;;;3.78;;
65641;SDS011;52340;-6.720;108.544;2023-08-17T04:09:23;10.43;;;3.80;;
65641;SDS011;52340;-6.720;108.544;2023-08-17T04:10:25;10.80;;;4.00;;
65641;SDS011;52340;-6.720;108.544;2023-08-17T04:11:27;10.85;;;3.97;;
65641;SDS011;52340;-6.720;108.544;2023-08-17T04:12:29;13.25;;;3.78;;
65641;SDS011;52340;-6.720;108.544;2023-08-17T04:13:32;9.95;;;3.70;;
65641;SDS011;52340;-6.720;108.544;2023-08-17T04:14:34;9.23;;;3.65;;
65641;SDS011;52340;-6.720;108.544;2023-08-17T04:15:35;15.20;;;4.72;;
65641;SDS011;52340;-6.720;108.544;2023-08-17T04:16:37;61.00;;;8.32;;
65641;SDS011;52340;-6.720;108.544;2023-08-17T04:17:39;16.42;;;4.60;;
65641;SDS011;52340;-6.720;108.544;2023-08-17T04:18:40;20.60;;;4.82;;
65641;SDS011;52340;-6.720;108.544;2023-08-17T04:19:42;14.98;;;4.60;;
65641;SDS011;52340;-6.720;108.544;2023-08-17T04:20:44;18.13;;;4.88;;
65641;SDS011;52340;-6.720;108.544;2023-08-17T04:21:45;16.73;;;4.32;;
65641;SDS011;52340;-6.720;108.544;2023-08-17T04:22:47;12.13;;;4.20;;
65641;SDS011;52340;-6.720;108.544;2023-08-17T04:23:49;14.63;;;4.20;;
65641;SDS011;52340;-6.720;108.544;2023-08-17T04:24:51;13.23;;;4.03;;
65641;SDS011;52340;-6.720;108.544;2023-08-17T04:25:52;13.38;;;4.70;;
65641;SDS011;52340;-6.720;108.544;2023-08-17T04:26:55;9.80;;;4.03;;
65641;SDS011;52340;-6.720;108.544;2023-08-17T04:27:56;12.18;;;4.47;;
65641;SDS011;52340;-6.720;108.544;2023-08-17T04:29:00;9.60;;;4.00;;
65641;SDS011;52340;-6.720;108.544;2023-08-17T04:30:02;11.18;;;4.50;;
65641;SDS011;52340;-6.720;108.544;2023-08-17T04:31:04;10.15;;;4.30;;
65641;SDS011;52340;-6.720;108.544;2023-08-17T04:32:06;9.13;;;3.88;;
65641;SDS011;52340;-6.720;108.544;2023-08-17T04:33:08;11.63;;;4.43;;
65641;SDS011;52340;-6.720;108.544;2023-08-17T04:34:09;11.15;;;4.25;;
65641;SDS011;52340;-6.720;108.544;2023-08-17T04:35:11;10.27;;;4.32;;
65641;SDS011;52340;-6.720;108.544;2023-08-17T04:36:13;17.52;;;5.03;;
65641;SDS011;52340;-6.720;108.544;2023-08-17T04:37:14;10.02;;;3.92;;
65641;SDS011;52340;-6.720;108.544;2023-08-17T04:38:16;14.38;;;4.78;;
65641;SDS011;52340;-6.720;108.544;2023-08-17T04:39:18;9.77;;;4.80;;
65641;SDS011;52340;-6.720;108.544;2023-08-17T04:40:20;11.95;;;5.05;;
65641;SDS011;52340;-6.720;108.544;2023-08-17T04:41:21;12.05;;;4.80;;
65641;SDS011;52340;-6.720;108.544;2023-08-17T04:42:23;10.60;;;4.75;;
65641;SDS011;52340;-6.720;108.544;2023-08-17T04:43:25;14.77;;;5.35;;
65641;SDS011;52340;-6.720;108.544;2023-08-17T04:44:28;13.43;;;5.50;;
65641;SDS011;52340;-6.720;108.544;2023-08-17T04:45:30;12.85;;;5.18;;
65641;SDS011;52340;-6.720;108.544;2023-08-17T04:46:31;10.07;;;5.25;;
65641;SDS011;52340;-6.720;108.544;2023-08-17T04:47:35;12.05;;;5.32;;
65641;SDS011;52340;-6.720;108.544;2023-08-17T04:48:37;8.75;;;5.07;;
65641;SDS011;52340;-6.720;108.544;2023-08-17T04:49:39;10.68;;;5.07;;
65641;SDS011;52340;-6.720;108.544;2023-08-17T04:50:41;11.77;;;4.97;;
65641;SDS011;52340;-6.720;108.544;2023-08-17T04:51:42;7.97;;;4.90;;
65641;SDS011;52340;-6.720;108.544;2023-08-17T04:52:44;9.32;;;5.22;;
65641;SDS011;52340;-6.720;108.544;2023-08-17T04:53:46;10.15;;;5.20;;
65641;SDS011;52340;-6.720;108.544;2023-08-17T04:54:47;11.27;;;5.28;;
65641;SDS011;52340;-6.720;108.544;2023-08-17T04:55:49;9.80;;;5.32;;
65641;SDS011;52340;-6.720;108.544;2023-08-17T04:56:51;14.48;;;5.85;;
65641;SDS011;52340;-6.720;108.544;2023-08-17T04:57:53;13.57;;;5.93;;
65641;SDS011;52340;-6.720;108.544;2023-08-17T04:58:54;11.82;;;5.88;;
65641;SDS011;52340;-6.720;108.544;2023-08-17T04:59:58;15.77;;;6.30;;
65641;SDS011;52340;-6.720;108.544;2023-08-17T05:00:59;14.20;;;6.43;;
65641;SDS011;52340;-6.720;108.544;2023-08-17T05:02:01;14.73;;;6.10;;
65641;SDS011;52340;-6.720;108.544;2023-08-17T05:03:03;14.77;;;6.40;;
65641;SDS011;52340;-6.720;108.544;2023-08-17T05:04:05;11.13;;;6.10;;
65641;SDS011;52340;-6.720;108.544;2023-08-17T05:05:09;11.15;;;6.47;;
65641;SDS011;52340;-6.720;108.544;2023-08-17T05:06:11;17.02;;;6.40;;
65641;SDS011;52340;-6.720;108.544;2023-08-17T05:07:15;9.90;;;6.05;;
65641;SDS011;52340;-6.720;108.544;2023-08-17T05:08:17;12.20;;;6.28;;
65641;SDS011;52340;-6.720;108.544;2023-08-17T05:09:19;13.00;;;6.60;;
65641;SDS011;52340;-6.720;108.544;2023-08-17T05:10:20;10.50;;;5.85;;
65641;SDS011;52340;-6.720;108.544;2023-08-17T05:11:22;10.65;;;6.03;;
65641;SDS011;52340;-6.720;108.544;2023-08-17T05:12:24;10.88;;;5.40;;
65641;SDS011;52340;-6.720;108.544;2023-08-17T05:13:25;10.63;;;5.32;;
65641;SDS011;52340;-6.720;108.544;2023-08-17T05:14:27;11.30;;;5.45;;
65641;SDS011;52340;-6.720;108.544;2023-08-17T05:15:30;19.15;;;5.30;;
65641;SDS011;52340;-6.720;108.544;2023-08-17T05:16:32;11.35;;;5.53;;
65641;SDS011;52340;-6.720;108.544;2023-08-17T05:17:34;9.40;;;5.22;;
65641;SDS011;52340;-6.720;108.544;2023-08-17T05:18:35;10.88;;;5.30;;
65641;SDS011;52340;-6.720;108.544;2023-08-17T05:19:37;11.93;;;5.22;;
65641;SDS011;52340;-6.720;108.544;2023-08-17T05:20:39;9.60;;;4.90;;
65641;SDS011;52340;-6.720;108.544;2023-08-17T05:21:41;10.98;;;5.20;;
65641;SDS011;52340;-6.720;108.544;2023-08-17T05:22:42;9.90;;;4.88;;
65641;SDS011;52340;-6.720;108.544;2023-08-17T05:23:44;11.00;;;5.07;;
65641;SDS011;52340;-6.720;108.544;2023-08-17T05:24:46;12.63;;;5.20;;
65641;SDS011;52340;-6.720;108.544;2023-08-17T05:25:47;11.02;;;5.20;;
65641;SDS011;52340;-6.720;108.544;2023-08-17T05:26:49;10.18;;;5.18;;
65641;SDS011;52340;-6.720;108.544;2023-08-17T05:27:51;13.82;;;5.07;;
65641;SDS011;52340;-6.720;108.544;2023-08-17T05:28:52;12.73;;;5.00;;
65641;SDS011;52340;-6.720;108.544;2023-08-17T05:29:54;10.07;;;5.30;;
65641;SDS011;52340;-6.720;108.544;2023-08-17T05:31:02;14.52;;;5.15;;
65641;SDS011;52340;-6.720;108.544;2023-08-17T05:32:04;12.00;;;5.40;;
65641;SDS011;52340;-6.720;108.544;2023-08-17T05:33:06;12.13;;;5.10;;
65641;SDS011;52340;-6.720;108.544;2023-08-17T05:34:08;13.18;;;5.20;;
65641;SDS011;52340;-6.720;108.544;2023-08-17T05:35:09;10.60;;;4.88;;
65641;SDS011;52340;-6.720;108.544;2023-08-17T05:36:11;14.32;;;4.78;;
65641;SDS011;52340;-6.720;108.544;2023-08-17T05:37:13;10.88;;;4.90;;
65641;SDS011;52340;-6.720;108.544;2023-08-17T05:38:15;14.52;;;5.00;;
65641;SDS011;52340;-6.720;108.544;2023-08-17T05:39:16;12.57;;;4.75;;
65641;SDS011;52340;-6.720;108.544;2023-08-17T05:40:18;11.05;;;4.57;;
65641;SDS011;52340;-6.720;108.544;2023-08-17T05:41:20;9.82;;;4.53;;
65641;SDS011;52340;-6.720;108.544;2023-08-17T05:42:21;13.82;;;4.40;;
65641;SDS011;52340;-6.720;108.544;2023-08-17T05:43:23;15.43;;;4.13;;
65641;SDS011;52340;-6.720;108.544;2023-08-17T05:44:25;12.68;;;4.22;;
65641;SDS011;52340;-6.720;108.544;2023-08-17T05:45:27;10.65;;;4.00;;
65641;SDS011;52340;-6.720;108.544;2023-08-17T05:46:30;9.77;;;3.88;;
65641;SDS011;52340;-6.720;108.544;2023-08-17T05:47:32;11.32;;;3.88;;
65641;SDS011;52340;-6.720;108.544;2023-08-17T05:48:33;14.05;;;3.72;;
65641;SDS011;52340;-6.720;108.544;2023-08-17T05:49:35;7.82;;;3.50;;
65641;SDS011;52340;-6.720;108.544;2023-08-17T05:50:37;8.82;;;3.60;;
65641;SDS011;52340;-6.720;108.544;2023-08-17T05:51:42;7.80;;;3.20;;
65641;SDS011;52340;-6.720;108.544;2023-08-17T05:52:43;10.48;;;3.67;;
65641;SDS011;52340;-6.720;108.544;2023-08-17T05:53:45;14.68;;;3.85;;
65641;SDS011;52340;-6.720;108.544;2023-08-17T05:54:47;12.60;;;3.67;;
65641;SDS011;52340;-6.720;108.544;2023-08-17T05:55:48;9.73;;;3.58;;
65641;SDS011;52340;-6.720;108.544;2023-08-17T05:56:50;7.63;;;3.13;;
65641;SDS011;52340;-6.720;108.544;2023-08-17T05:57:52;9.98;;;3.20;;
65641;SDS011;52340;-6.720;108.544;2023-08-17T05:58:53;12.35;;;3.72;;
65641;SDS011;52340;-6.720;108.544;2023-08-17T05:59:55;10.77;;;3.53;;
65641;SDS011;52340;-6.720;108.544;2023-08-17T06:01:03;7.93;;;3.00;;